Terminal Aerodrome Forecast
Issued by NWS Twin Cities, MN

Home | Current Version | Previous Version | Graphics & Text | Print | Product List | Glossary On
Versions: 1 2 3 4 5 6 7 8 9 10 11 12 13 14 15 16 17 18 19 20 21 22 23 24
000
FTUS43 KMPX 202320
TAFMSP
TAF
KMSP 202320Z 2100/2206 18014G23KT P6SM SCT250
     FM210200 16013G20KT P6SM SCT150 WS020/19050KT
     FM211000 16011KT P6SM VCSH OVC070
     FM211200 15011KT P6SM -SHRA OVC045
     FM211600 16015G24KT P6SM OVC020
     FM212100 17014KT 6SM -RA VCTS OVC020CB
     FM220000 21006KT 6SM -RA BR OVC025
     FM220300 26005KT 6SM -SHRA BR OVC040=

USA.gov is the U.S. government's official web portal to all federal, state and local government web resources and services.